Time;durP1;ratioP1;P1;durP2;ratioP2;P2;SDS_P1;SDS_P2;PMS_P1;PMS_P2;Temp;Humidity;BMP_temperature;BMP_pressure;BME280_temperature;BME280_humidity;BME280_pressure;Samples;Min_cycle;Max_cycle;Signal;HPM_P1;HPM_P2
2022/10/21 00:00:45;;;;;;;17.80;8.25;;;;;;;;;;5072427;28;20064;-49
2022/10/21 00:03:28;;;;;;;15.27;7.57;;;;;;;;;;5059108;28;20049;-49
2022/10/21 00:05:56;;;;;;;13.02;7.18;;;;;;;;;;5061142;28;20408;-52
2022/10/21 00:08:23;;;;;;;17.67;8.48;;;;;;;;;;5079006;28;20048;-51
2022/10/21 00:10:54;;;;;;;14.32;7.85;;;;;;;;;;5077580;28;20408;-47
2022/10/21 00:13:25;;;;;;;15.38;7.35;;;;;;;;;;5058706;28;20053;-46
2022/10/21 00:16:01;;;;;;;13.48;6.68;;;;;;;;;;5059076;28;20048;-47
2022/10/21 00:18:43;;;;;;;16.38;7.70;;;;;;;;;;5067125;28;20055;-48
2022/10/21 00:21:12;;;;;;;15.77;7.53;;;;;;;;;;5075979;28;20052;-47
2022/10/21 00:23:41;;;;;;;14.23;7.55;;;;;;;;;;5058628;28;20397;-49
2022/10/21 00:26:10;;;;;;;16.17;7.13;;;;;;;;;;5068754;28;20067;-46
2022/10/21 00:28:40;;;;;;;16.52;8.02;;;;;;;;;;5071080;28;20052;-47
2022/10/21 00:31:11;;;;;;;16.23;8.07;;;;;;;;;;5078110;28;20048;-47
2022/10/21 00:33:44;;;;;;;14.98;7.75;;;;;;;;;;5078702;28;20052;-47
2022/10/21 00:36:15;;;;;;;13.68;7.63;;;;;;;;;;5078504;28;20048;-46
2022/10/21 00:38:43;;;;;;;16.17;8.40;;;;;;;;;;5070167;28;20059;-48
2022/10/21 00:41:14;;;;;;;19.13;8.75;;;;;;;;;;5078650;28;20049;-47
2022/10/21 00:43:55;;;;;;;18.73;8.75;;;;;;;;;;5066532;28;20113;-47
2022/10/21 00:46:30;;;;;;;15.70;7.82;;;;;;;;;;5079507;28;20373;-46
2022/10/21 00:49:06;;;;;;;18.77;8.38;;;;;;;;;;5086027;28;20049;-47
2022/10/21 00:51:35;;;;;;;20.25;9.90;;;;;;;;;;5078125;28;20059;-46
2022/10/21 00:54:05;;;;;;;19.30;9.80;;;;;;;;;;5072799;28;20061;-48
2022/10/21 00:56:33;;;;;;;17.70;9.82;;;;;;;;;;5062890;28;20048;-46
2022/10/21 00:59:11;;;;;;;19.20;10.40;;;;;;;;;;5068988;28;20127;-46
2022/10/21 01:01:41;;;;;;;18.98;9.35;;;;;;;;;;5064922;28;20079;-47
2022/10/21 01:04:21;;;;;;;21.63;10.43;;;;;;;;;;5087461;28;20044;-47
2022/10/21 01:06:48;;;;;;;17.98;9.85;;;;;;;;;;5062303;28;20763;-47
2022/10/21 01:09:18;;;;;;;21.13;10.10;;;;;;;;;;5074695;28;20052;-46
2022/10/21 01:11:46;;;;;;;19.02;9.55;;;;;;;;;;5073451;28;20040;-48
2022/10/21 01:14:24;;;;;;;19.48;10.30;;;;;;;;;;5058668;28;20102;-50
2022/10/21 01:17:02;;;;;;;19.23;9.45;;;;;;;;;;5065167;28;20059;-46
2022/10/21 01:19:51;;;;;;;16.58;9.88;;;;;;;;;;5055374;28;20134;-47
2022/10/21 01:22:25;;;;;;;18.80;9.05;;;;;;;;;;5055360;28;20116;-46
2022/10/21 01:25:08;;;;;;;19.67;10.32;;;;;;;;;;5074226;28;20481;-45
2022/10/21 01:27:44;;;;;;;17.98;9.02;;;;;;;;;;5074657;28;20366;-48
2022/10/21 01:30:14;;;;;;;16.65;8.98;;;;;;;;;;5074479;28;20057;-46
2022/10/21 01:32:47;;;;;;;16.42;9.00;;;;;;;;;;5088367;28;20055;-47
2022/10/21 01:35:19;;;;;;;16.85;8.75;;;;;;;;;;5074678;28;20055;-47
2022/10/21 01:38:03;;;;;;;16.40;7.93;;;;;;;;;;5074395;28;20064;-46
2022/10/21 01:40:34;;;;;;;16.90;9.27;;;;;;;;;;5073584;28;20076;-47
2022/10/21 01:43:07;;;;;;;17.13;9.25;;;;;;;;;;5059225;28;20053;-46
2022/10/21 01:45:36;;;;;;;16.45;9.23;;;;;;;;;;5060210;28;20048;-47
2022/10/21 01:48:11;;;;;;;16.40;8.25;;;;;;;;;;5060570;28;20466;-46
2022/10/21 01:50:42;;;;;;;20.95;10.05;;;;;;;;;;5069191;28;20056;-47
2022/10/21 01:53:13;;;;;;;18.75;9.10;;;;;;;;;;5073691;28;20477;-48
2022/10/21 01:55:40;;;;;;;14.45;8.15;;;;;;;;;;5073880;28;20062;-47
2022/10/21 01:58:10;;;;;;;15.07;9.25;;;;;;;;;;5074186;28;20056;-48
2022/10/21 02:00:47;;;;;;;17.23;8.73;;;;;;;;;;5073705;28;20449;-46
2022/10/21 02:03:32;;;;;;;15.15;7.72;;;;;;;;;;5074354;28;20049;-46
2022/10/21 02:06:00;;;;;;;17.52;8.32;;;;;;;;;;5087847;28;20048;-47
2022/10/21 02:08:28;;;;;;;18.33;8.23;;;;;;;;;;5073775;28;20047;-49
2022/10/21 02:11:04;;;;;;;17.63;7.85;;;;;;;;;;5073074;28;20044;-47
2022/10/21 02:13:35;;;;;;;14.60;8.60;;;;;;;;;;5074088;28;20131;-45
2022/10/21 02:16:06;;;;;;;15.43;7.85;;;;;;;;;;5067995;28;20053;-46
2022/10/21 02:18:38;;;;;;;18.65;8.82;;;;;;;;;;5054166;28;20059;-46
2022/10/21 02:21:08;;;;;;;17.85;8.73;;;;;;;;;;5053576;28;20368;-46
2022/10/21 02:23:39;;;;;;;13.43;8.27;;;;;;;;;;5057998;28;20044;-47
2022/10/21 02:26:09;;;;;;;13.05;7.50;;;;;;;;;;5068573;28;20051;-46
2022/10/21 02:28:38;;;;;;;17.08;7.18;;;;;;;;;;5054343;28;20048;-48
2022/10/21 02:31:14;;;;;;;13.88;7.32;;;;;;;;;;5053917;28;20076;-46
2022/10/21 02:33:58;;;;;;;11.95;7.00;;;;;;;;;;5070102;28;20036;-47
2022/10/21 02:36:43;;;;;;;14.43;7.28;;;;;;;;;;5078897;28;20075;-47
2022/10/21 02:39:17;;;;;;;13.43;6.70;;;;;;;;;;5072306;28;20088;-45
2022/10/21 02:41:48;;;;;;;13.75;6.93;;;;;;;;;;5081703;28;20123;-46
2022/10/21 02:44:18;;;;;;;13.55;6.50;;;;;;;;;;5083595;28;20040;-46
2022/10/21 02:46:49;;;;;;;11.88;6.05;;;;;;;;;;5079587;28;20044;-47
2022/10/21 02:49:19;;;;;;;13.90;6.65;;;;;;;;;;5091902;28;20079;-47
2022/10/21 02:51:49;;;;;;;14.50;7.40;;;;;;;;;;5082931;28;20043;-47
2022/10/21 02:54:20;;;;;;;12.93;6.40;;;;;;;;;;5078174;28;20429;-46
2022/10/21 02:56:48;;;;;;;10.52;6.10;;;;;;;;;;5073475;28;20489;-47
2022/10/21 02:59:16;;;;;;;13.75;6.28;;;;;;;;;;5073279;28;20048;-46
2022/10/21 03:01:46;;;;;;;14.77;6.32;;;;;;;;;;5085457;28;20049;-47
2022/10/21 03:04:14;;;;;;;12.90;6.70;;;;;;;;;;5073367;28;20080;-48
2022/10/21 03:06:44;;;;;;;12.75;6.60;;;;;;;;;;5059460;28;20465;-46
2022/10/21 03:09:13;;;;;;;11.93;6.43;;;;;;;;;;5067751;28;20061;-47
2022/10/21 03:11:51;;;;;;;13.90;6.32;;;;;;;;;;5061500;28;20127;-46
2022/10/21 03:14:21;;;;;;;12.10;6.30;;;;;;;;;;5088432;28;20044;-47
2022/10/21 03:16:48;;;;;;;13.93;6.45;;;;;;;;;;5061104;28;20056;-47
2022/10/21 03:19:17;;;;;;;12.48;6.03;;;;;;;;;;5051835;28;20127;-46
2022/10/21 03:21:45;;;;;;;11.43;6.45;;;;;;;;;;5052934;28;20060;-47
2022/10/21 03:24:15;;;;;;;11.52;6.15;;;;;;;;;;5052531;28;20044;-47
2022/10/21 03:26:48;;;;;;;14.73;7.07;;;;;;;;;;5053624;28;20081;-46
2022/10/21 03:29:17;;;;;;;13.23;6.25;;;;;;;;;;5052408;28;20102;-46
2022/10/21 03:31:44;;;;;;;11.93;6.35;;;;;;;;;;5052787;28;20140;-46
2022/10/21 03:34:14;;;;;;;18.95;7.80;;;;;;;;;;5051634;28;20056;-46
2022/10/21 03:36:43;;;;;;;13.30;7.43;;;;;;;;;;5059551;28;20052;-47
2022/10/21 03:39:14;;;;;;;15.43;7.47;;;;;;;;;;5068637;28;20056;-46
2022/10/21 03:41:43;;;;;;;19.80;9.73;;;;;;;;;;5066522;28;20084;-47
2022/10/21 03:44:16;;;;;;;16.23;7.15;;;;;;;;;;5062828;28;20545;-47
2022/10/21 03:46:46;;;;;;;11.95;7.15;;;;;;;;;;5089611;28;20167;-46
2022/10/21 03:49:16;;;;;;;13.88;7.22;;;;;;;;;;5087778;28;20040;-48
2022/10/21 03:51:44;;;;;;;16.45;7.43;;;;;;;;;;5060484;28;20466;-47
2022/10/21 03:54:13;;;;;;;15.57;7.50;;;;;;;;;;5063269;28;20055;-48
2022/10/21 03:56:44;;;;;;;15.27;7.32;;;;;;;;;;5060482;28;20128;-46
2022/10/21 03:59:19;;;;;;;15.05;8.13;;;;;;;;;;5052407;28;20687;-48
2022/10/21 04:01:49;;;;;;;13.10;6.78;;;;;;;;;;5051781;28;20518;-47
2022/10/21 04:04:15;;;;;;;16.60;7.88;;;;;;;;;;5052603;28;20052;-47
2022/10/21 04:06:42;;;;;;;15.30;7.88;;;;;;;;;;5060620;28;20059;-47
2022/10/21 04:09:10;;;;;;;17.00;7.10;;;;;;;;;;5067236;28;20098;-46
2022/10/21 04:11:41;;;;;;;15.63;7.72;;;;;;;;;;5051786;28;20365;-48
2022/10/21 04:14:08;;;;;;;15.18;7.95;;;;;;;;;;5055116;28;20128;-49
2022/10/21 04:16:38;;;;;;;17.63;7.85;;;;;;;;;;5061984;28;20057;-48
2022/10/21 04:19:05;;;;;;;16.17;7.50;;;;;;;;;;5052078;28;20057;-46
2022/10/21 04:21:35;;;;;;;16.63;7.38;;;;;;;;;;5060878;28;20114;-48
2022/10/21 04:24:04;;;;;;;14.98;7.70;;;;;;;;;;5072059;28;20060;-48
2022/10/21 04:29:16;;;;;;;15.60;7.50;;;;;;;;;;5085847;28;20050;-48
2022/10/21 04:31:49;;;;;;;14.88;6.45;;;;;;;;;;5073883;28;20045;-51
2022/10/21 04:34:18;;;;;;;17.17;7.78;;;;;;;;;;5091550;28;20040;-47
2022/10/21 04:36:45;;;;;;;12.40;6.95;;;;;;;;;;5095827;28;20084;-46
2022/10/21 04:39:15;;;;;;;15.07;7.93;;;;;;;;;;5077163;28;20365;-47
2022/10/21 04:41:43;;;;;;;17.02;8.32;;;;;;;;;;5069530;28;20056;-47
2022/10/21 04:44:12;;;;;;;14.02;7.57;;;;;;;;;;5095029;28;20384;-47
2022/10/21 04:46:40;;;;;;;14.35;7.10;;;;;;;;;;5068719;28;20060;-47
2022/10/21 04:49:14;;;;;;;17.65;7.88;;;;;;;;;;5055829;28;20045;-48
2022/10/21 04:51:43;;;;;;;15.82;7.78;;;;;;;;;;5055225;28;20053;-48
2022/10/21 04:54:12;;;;;;;15.52;7.45;;;;;;;;;;5065934;28;20378;-47
2022/10/21 04:56:43;;;;;;;16.77;6.97;;;;;;;;;;5072809;28;20060;-47
2022/10/21 04:59:11;;;;;;;13.85;6.85;;;;;;;;;;5060824;28;20053;-46
2022/10/21 05:01:41;;;;;;;12.30;6.65;;;;;;;;;;5074172;28;20044;-46
2022/10/21 05:04:21;;;;;;;14.13;7.15;;;;;;;;;;5059715;28;20048;-48
2022/10/21 05:06:49;;;;;;;12.70;7.07;;;;;;;;;;5064286;28;20045;-49
2022/10/21 05:09:16;;;;;;;17.70;7.45;;;;;;;;;;5070306;28;20063;-48
2022/10/21 05:11:46;;;;;;;13.00;7.20;;;;;;;;;;5067070;28;20041;-46
2022/10/21 05:14:16;;;;;;;16.77;6.82;;;;;;;;;;5060011;28;20048;-46
2022/10/21 05:16:45;;;;;;;12.57;7.03;;;;;;;;;;5074542;28;20052;-47
2022/10/21 05:19:17;;;;;;;17.67;7.40;;;;;;;;;;5074710;28;20060;-47
2022/10/21 05:21:46;;;;;;;14.68;6.95;;;;;;;;;;5075223;28;20079;-48
2022/10/21 05:24:16;;;;;;;11.90;6.70;;;;;;;;;;5074268;28;20048;-47
2022/10/21 05:26:44;;;;;;;14.80;7.18;;;;;;;;;;5074294;28;20048;-48
2022/10/21 05:29:14;;;;;;;12.43;6.68;;;;;;;;;;5074502;28;20049;-46
2022/10/21 05:31:42;;;;;;;16.50;7.05;;;;;;;;;;5074320;28;20366;-46
2022/10/21 05:34:12;;;;;;;14.95;7.03;;;;;;;;;;5074170;28;20059;-49
2022/10/21 05:36:51;;;;;;;18.25;8.48;;;;;;;;;;5081745;28;20131;-48
2022/10/21 05:42:01;;;;;;;14.98;7.10;;;;;;;;;;5075910;28;20052;-48
2022/10/21 05:44:31;;;;;;;18.30;7.38;;;;;;;;;;5094578;28;20361;-47
2022/10/21 05:47:01;;;;;;;11.45;6.00;;;;;;;;;;5062477;28;20442;-48
2022/10/21 05:49:31;;;;;;;14.02;6.75;;;;;;;;;;5094269;28;20048;-47
2022/10/21 05:52:01;;;;;;;15.27;7.13;;;;;;;;;;5069211;28;20057;-48
2022/10/21 05:54:29;;;;;;;19.77;7.35;;;;;;;;;;5078089;28;20497;-47
2022/10/21 05:59:38;;;;;;;16.38;7.00;;;;;;;;;;5067233;28;20044;-46
2022/10/21 06:02:08;;;;;;;16.30;7.75;;;;;;;;;;5071023;28;20052;-49
2022/10/21 06:04:36;;;;;;;14.18;7.90;;;;;;;;;;5069918;28;20080;-46
2022/10/21 06:07:12;;;;;;;22.80;8.15;;;;;;;;;;5062281;28;20053;-47
2022/10/21 06:09:39;;;;;;;16.88;7.22;;;;;;;;;;5067016;28;20049;-47
2022/10/21 06:12:07;;;;;;;19.60;8.75;;;;;;;;;;5061769;28;20122;-47
2022/10/21 06:14:37;;;;;;;24.33;8.68;;;;;;;;;;5063756;28;20048;-51
2022/10/21 06:17:05;;;;;;;23.83;9.73;;;;;;;;;;5065390;28;20140;-46
2022/10/21 06:19:35;;;;;;;20.80;9.50;;;;;;;;;;5068130;28;20048;-47
2022/10/21 06:22:06;;;;;;;25.08;10.10;;;;;;;;;;5066649;28;20056;-46
2022/10/21 06:24:48;;;;;;;22.15;9.15;;;;;;;;;;5069657;28;20048;-47
2022/10/21 06:27:18;;;;;;;18.92;8.48;;;;;;;;;;5069205;28;20190;-48
2022/10/21 06:29:50;;;;;;;14.30;8.30;;;;;;;;;;5058250;28;20060;-47
2022/10/21 06:32:19;;;;;;;18.33;8.70;;;;;;;;;;5058862;28;20053;-47
2022/10/21 06:34:49;;;;;;;17.10;9.07;;;;;;;;;;5071086;28;20045;-47
2022/10/21 06:37:19;;;;;;;18.80;8.45;;;;;;;;;;5065402;28;20052;-45
2022/10/21 06:39:54;;;;;;;18.92;8.88;;;;;;;;;;5068270;28;20558;-44
2022/10/21 06:42:23;;;;;;;18.13;9.43;;;;;;;;;;5064049;28;20076;-44
2022/10/21 06:44:54;;;;;;;18.25;8.88;;;;;;;;;;5057479;28;20056;-42
2022/10/21 06:47:24;;;;;;;19.27;9.35;;;;;;;;;;5063684;28;20052;-44
2022/10/21 06:49:51;;;;;;;20.55;9.45;;;;;;;;;;5075541;28;20448;-45
2022/10/21 06:52:21;;;;;;;21.73;8.80;;;;;;;;;;5081840;28;20052;-44
2022/10/21 06:55:02;;;;;;;16.10;8.32;;;;;;;;;;5067657;28;20457;-46
2022/10/21 06:57:31;;;;;;;16.42;8.13;;;;;;;;;;5070952;28;20133;-45
2022/10/21 06:59:59;;;;;;;15.98;8.38;;;;;;;;;;5073132;28;20384;-47
2022/10/21 07:02:29;;;;;;;19.17;10.20;;;;;;;;;;5062583;28;20048;-45
2022/10/21 07:04:59;;;;;;;15.85;9.13;;;;;;;;;;5062443;28;20052;-45
2022/10/21 07:07:25;;;;;;;17.15;8.88;;;;;;;;;;5064141;28;20044;-45
2022/10/21 07:10:04;;;;;;;16.85;8.77;;;;;;;;;;5068253;28;20052;-45
2022/10/21 07:12:34;;;;;;;13.98;8.55;;;;;;;;;;5075690;28;20083;-46
2022/10/21 07:15:04;;;;;;;21.70;8.07;;;;;;;;;;5069916;28;20060;-45
2022/10/21 07:17:34;;;;;;;17.38;7.95;;;;;;;;;;5071524;28;20060;-46
2022/10/21 07:20:01;;;;;;;14.82;8.30;;;;;;;;;;5070538;28;20045;-46
2022/10/21 07:22:30;;;;;;;15.43;8.88;;;;;;;;;;5067195;28;20466;-47
2022/10/21 07:25:01;;;;;;;22.27;8.63;;;;;;;;;;5063979;28;20048;-45
2022/10/21 07:27:30;;;;;;;15.95;7.78;;;;;;;;;;5082872;28;20048;-45
2022/10/21 07:30:00;;;;;;;16.98;8.35;;;;;;;;;;5080580;28;20402;-43
2022/10/21 07:32:27;;;;;;;16.75;7.65;;;;;;;;;;5061904;28;20756;-45
2022/10/21 07:34:57;;;;;;;12.95;7.35;;;;;;;;;;5068336;28;20058;-49
2022/10/21 07:37:27;;;;;;;14.65;7.28;;;;;;;;;;5066459;28;20374;-54
2022/10/21 07:39:57;;;;;;;12.77;7.05;;;;;;;;;;5064636;28;20084;-47
2022/10/21 07:42:40;;;;;;;14.13;7.50;;;;;;;;;;5064855;28;20044;-47
2022/10/21 07:45:11;;;;;;;15.00;6.80;;;;;;;;;;5060360;28;20482;-49
2022/10/21 07:47:37;;;;;;;14.75;6.68;;;;;;;;;;5070181;28;20052;-48
2022/10/21 07:50:07;;;;;;;12.23;6.78;;;;;;;;;;5063240;28;20052;-50
2022/10/21 07:52:37;;;;;;;14.02;6.88;;;;;;;;;;5069694;28;20052;-48
2022/10/21 07:55:06;;;;;;;12.93;7.15;;;;;;;;;;5070481;28;20049;-47
2022/10/21 07:57:43;;;;;;;13.55;6.85;;;;;;;;;;5071567;28;20346;-47
2022/10/21 08:00:14;;;;;;;17.58;7.65;;;;;;;;;;5063276;28;20366;-47
2022/10/21 08:02:41;;;;;;;16.33;6.88;;;;;;;;;;5070411;28;20052;-47
2022/10/21 08:05:09;;;;;;;13.80;7.03;;;;;;;;;;5068590;28;20048;-47
2022/10/21 08:07:38;;;;;;;16.40;7.88;;;;;;;;;;5072212;28;20052;-47
2022/10/21 08:10:19;;;;;;;17.08;8.10;;;;;;;;;;5067189;28;20044;-47
2022/10/21 08:12:50;;;;;;;16.42;8.00;;;;;;;;;;5075728;28;20604;-46
2022/10/21 08:15:18;;;;;;;16.45;7.85;;;;;;;;;;5068138;28;20049;-45
2022/10/21 08:17:45;;;;;;;16.75;8.32;;;;;;;;;;5075431;28;20056;-45
2022/10/21 08:20:12;;;;;;;14.95;7.30;;;;;;;;;;5069355;28;20056;-46
2022/10/21 08:22:42;;;;;;;17.02;7.35;;;;;;;;;;5074014;28;20484;-47
2022/10/21 08:25:15;;;;;;;15.93;8.00;;;;;;;;;;5071456;28;20059;-46
2022/10/21 08:27:46;;;;;;;14.55;7.53;;;;;;;;;;5067604;28;20128;-46
2022/10/21 08:30:18;;;;;;;19.65;8.02;;;;;;;;;;5066229;28;20052;-46
2022/10/21 08:32:48;;;;;;;16.67;8.13;;;;;;;;;;5069809;28;20454;-45
2022/10/21 08:35:21;;;;;;;20.73;8.48;;;;;;;;;;5075057;28;20070;-45
2022/10/21 08:37:51;;;;;;;18.88;8.60;;;;;;;;;;5086373;28;20091;-46
2022/10/21 08:40:21;;;;;;;16.20;8.32;;;;;;;;;;5076461;28;20127;-46
2022/10/21 08:42:50;;;;;;;19.83;8.98;;;;;;;;;;5083429;28;20058;-45
2022/10/21 08:45:37;;;;;;;19.15;9.25;;;;;;;;;;5089321;28;20818;-46
2022/10/21 08:48:15;;;;;;;17.48;9.10;;;;;;;;;;4976661;28;2004928;-47
2022/10/21 08:50:52;;;;;;;17.17;8.50;;;;;;;;;;5032155;28;20469;-47
2022/10/21 08:53:30;;;;;;;19.15;9.50;;;;;;;;;;5039769;28;20482;-43
2022/10/21 08:56:01;;;;;;;17.92;8.45;;;;;;;;;;5045182;28;20128;-45
2022/10/21 08:58:31;;;;;;;15.85;8.77;;;;;;;;;;5045697;28;20049;-44
2022/10/21 09:01:03;;;;;;;17.10;7.90;;;;;;;;;;5033525;28;20081;-44
2022/10/21 09:03:35;;;;;;;17.67;9.45;;;;;;;;;;5024397;28;20111;-47
2022/10/21 09:06:12;;;;;;;18.05;7.88;;;;;;;;;;5036152;28;20107;-45
2022/10/21 09:08:49;;;;;;;17.73;8.50;;;;;;;;;;4983105;28;20382;-45
2022/10/21 09:11:19;;;;;;;17.63;8.20;;;;;;;;;;5011421;28;20054;-45
2022/10/21 09:13:55;;;;;;;18.63;8.85;;;;;;;;;;5014842;28;20054;-44
2022/10/21 09:16:28;;;;;;;17.02;8.30;;;;;;;;;;5007942;28;20479;-45
2022/10/21 09:19:03;;;;;;;17.33;8.23;;;;;;;;;;4999919;28;20058;-45
2022/10/21 09:21:38;;;;;;;21.48;9.63;;;;;;;;;;5006164;28;20136;-44
2022/10/21 09:24:14;;;;;;;17.02;8.63;;;;;;;;;;5013472;28;20061;-46
2022/10/21 09:26:42;;;;;;;14.75;7.43;;;;;;;;;;5003250;28;20125;-43
2022/10/21 09:29:21;;;;;;;15.57;8.07;;;;;;;;;;5002771;28;20478;-44
2022/10/21 09:31:58;;;;;;;15.68;7.78;;;;;;;;;;5012410;28;20053;-44
2022/10/21 09:34:42;;;;;;;16.23;8.30;;;;;;;;;;5013342;28;20526;-43
2022/10/21 09:37:15;;;;;;;18.38;9.02;;;;;;;;;;5013934;28;20065;-44
2022/10/21 09:39:47;;;;;;;18.33;7.50;;;;;;;;;;5006444;28;20286;-45
2022/10/21 09:42:17;;;;;;;16.25;7.68;;;;;;;;;;5010017;28;20050;-45
2022/10/21 09:44:47;;;;;;;19.52;8.38;;;;;;;;;;5019757;28;20078;-46
2022/10/21 09:47:19;;;;;;;19.30;9.18;;;;;;;;;;5013098;28;20054;-46
2022/10/21 09:49:49;;;;;;;14.57;8.00;;;;;;;;;;5008756;28;20073;-48
2022/10/21 09:52:21;;;;;;;14.32;7.65;;;;;;;;;;5011691;28;20049;-47
2022/10/21 09:54:51;;;;;;;13.93;7.82;;;;;;;;;;5014607;28;20077;-47
2022/10/21 09:57:29;;;;;;;19.00;8.65;;;;;;;;;;5010810;28;20046;-47
2022/10/21 10:00:06;;;;;;;19.85;8.63;;;;;;;;;;5005069;28;20058;-47
2022/10/21 10:02:43;;;;;;;16.52;8.30;;;;;;;;;;5006070;28;20058;-47
2022/10/21 10:05:28;;;;;;;18.13;8.95;;;;;;;;;;5012386;28;20050;-46
2022/10/21 10:07:58;;;;;;;13.85;7.65;;;;;;;;;;5013830;28;20054;-48
2022/10/21 10:10:30;;;;;;;16.23;8.70;;;;;;;;;;5012869;28;20045;-47
2022/10/21 10:13:00;;;;;;;18.95;8.63;;;;;;;;;;5013219;28;20096;-46
2022/10/21 10:15:33;;;;;;;17.00;8.55;;;;;;;;;;5000533;28;20054;-46
2022/10/21 10:18:03;;;;;;;18.88;8.07;;;;;;;;;;5014446;28;20056;-47
2022/10/21 10:20:33;;;;;;;17.05;8.73;;;;;;;;;;4999967;28;20058;-47
2022/10/21 10:23:20;;;;;;;14.32;7.70;;;;;;;;;;4995706;28;20129;-47
2022/10/21 10:25:59;;;;;;;17.83;8.50;;;;;;;;;;5003821;28;20436;-47
2022/10/21 10:28:26;;;;;;;17.58;8.63;;;;;;;;;;5003873;28;20050;-46
2022/10/21 10:31:02;;;;;;;14.18;8.18;;;;;;;;;;5013600;28;20623;-47
2022/10/21 10:33:34;;;;;;;20.92;8.65;;;;;;;;;;5014187;28;20088;-47
2022/10/21 10:36:04;;;;;;;15.40;7.90;;;;;;;;;;5011843;28;20061;-47
2022/10/21 10:38:35;;;;;;;18.30;8.32;;;;;;;;;;5006741;28;20058;-47
2022/10/21 10:41:05;;;;;;;17.98;7.97;;;;;;;;;;5006910;28;20057;-47
2022/10/21 10:43:33;;;;;;;16.58;8.55;;;;;;;;;;5006559;28;20046;-48
2022/10/21 10:46:04;;;;;;;19.08;8.60;;;;;;;;;;5000544;28;20692;-47
2022/10/21 10:48:36;;;;;;;18.52;8.40;;;;;;;;;;4994291;28;20050;-50
2022/10/21 10:51:05;;;;;;;15.98;9.32;;;;;;;;;;5006355;28;20049;-46
2022/10/21 10:53:33;;;;;;;15.52;8.35;;;;;;;;;;4996564;28;20065;-47
2022/10/21 10:56:18;;;;;;;15.07;7.82;;;;;;;;;;4994497;28;20050;-50
2022/10/21 10:58:48;;;;;;;24.45;8.45;;;;;;;;;;5000444;28;20058;-49
2022/10/21 11:01:23;;;;;;;15.25;7.22;;;;;;;;;;5000064;28;20057;-48
2022/10/21 11:04:10;;;;;;;17.05;7.80;;;;;;;;;;4999758;28;20504;-47
2022/10/21 11:06:44;;;;;;;17.08;7.88;;;;;;;;;;5011766;28;20104;-47
2022/10/21 11:09:14;;;;;;;18.00;9.27;;;;;;;;;;5003851;28;20055;-48
2022/10/21 11:11:52;;;;;;;18.40;9.13;;;;;;;;;;5007730;28;20614;-46
2022/10/21 11:14:22;;;;;;;16.67;8.48;;;;;;;;;;4995257;28;20054;-47
2022/10/21 11:16:59;;;;;;;17.52;8.25;;;;;;;;;;5010420;28;20042;-49
2022/10/21 11:19:32;;;;;;;13.88;8.07;;;;;;;;;;5011184;28;20506;-46
2022/10/21 11:22:08;;;;;;;16.67;7.78;;;;;;;;;;5011597;28;20548;-49
2022/10/21 11:24:58;;;;;;;16.70;7.57;;;;;;;;;;5012895;28;20337;-49
2022/10/21 11:27:36;;;;;;;17.33;8.30;;;;;;;;;;5027481;28;20053;-49
2022/10/21 11:30:05;;;;;;;18.30;8.60;;;;;;;;;;5033184;28;20060;-50
2022/10/21 11:32:56;;;;;;;17.15;8.05;;;;;;;;;;5018649;28;20084;-52
2022/10/21 11:35:33;;;;;;;14.77;7.78;;;;;;;;;;5022131;28;20080;-49
2022/10/21 11:38:09;;;;;;;15.60;7.95;;;;;;;;;;5012634;28;20060;-51
2022/10/21 11:40:39;;;;;;;19.33;8.25;;;;;;;;;;5020539;28;20053;-49
2022/10/21 11:43:14;;;;;;;15.98;8.38;;;;;;;;;;5023476;28;20057;-50
2022/10/21 11:45:57;;;;;;;16.65;7.93;;;;;;;;;;5028808;28;20054;-51
2022/10/21 11:48:31;;;;;;;15.00;8.55;;;;;;;;;;5024768;28;20103;-50
2022/10/21 11:51:16;;;;;;;17.10;8.20;;;;;;;;;;5023445;28;20053;-50
2022/10/21 11:53:50;;;;;;;16.13;8.52;;;;;;;;;;5016435;28;20133;-49
2022/10/21 11:56:22;;;;;;;18.35;9.40;;;;;;;;;;4997745;28;20062;-50
2022/10/21 11:58:54;;;;;;;14.95;8.77;;;;;;;;;;4994430;28;20677;-50
2022/10/21 12:01:26;;;;;;;15.60;7.97;;;;;;;;;;5006954;28;20473;-53
2022/10/21 12:04:11;;;;;;;20.45;9.85;;;;;;;;;;4996224;28;20057;-50
2022/10/21 12:06:43;;;;;;;20.17;9.40;;;;;;;;;;4999813;28;20050;-50
2022/10/21 12:09:17;;;;;;;18.52;8.25;;;;;;;;;;5008352;28;20065;-52
2022/10/21 12:11:53;;;;;;;17.42;8.68;;;;;;;;;;5007338;28;20071;-50
2022/10/21 12:14:24;;;;;;;16.80;9.07;;;;;;;;;;5005063;28;20571;-51
2022/10/21 12:16:57;;;;;;;15.88;8.90;;;;;;;;;;4998113;28;20144;-49
2022/10/21 12:19:27;;;;;;;18.58;9.02;;;;;;;;;;5006311;28;20057;-51
2022/10/21 12:22:00;;;;;;;16.88;8.95;;;;;;;;;;5011581;28;20089;-51
2022/10/21 12:24:41;;;;;;;14.82;7.85;;;;;;;;;;5011457;28;20041;-52
2022/10/21 12:27:18;;;;;;;13.40;7.80;;;;;;;;;;5011850;28;20046;-49
2022/10/21 12:30:02;;;;;;;18.33;9.00;;;;;;;;;;5000047;28;20046;-50
2022/10/21 12:32:34;;;;;;;20.20;9.15;;;;;;;;;;5013355;28;20137;-51
2022/10/21 12:35:00;;;;;;;16.83;9.82;;;;;;;;;;4999992;28;20046;-52
2022/10/21 12:37:58;;;;;;;14.60;8.27;;;;;;;;;;5011956;28;20378;-50
2022/10/21 12:40:40;;;;;;;22.27;9.20;;;;;;;;;;4939617;29;20059;-50
2022/10/21 12:43:19;;;;;;;18.95;9.48;;;;;;;;;;4925284;29;20070;-49
2022/10/21 12:45:46;;;;;;;16.23;9.35;;;;;;;;;;4924292;29;20139;-50
2022/10/21 12:48:39;;;;;;;17.95;8.63;;;;;;;;;;4921410;29;20048;-50
2022/10/21 12:51:16;;;;;;;21.00;9.52;;;;;;;;;;4926491;29;20473;-52
2022/10/21 12:53:47;;;;;;;16.42;8.55;;;;;;;;;;4926197;29;20056;-52
2022/10/21 12:56:27;;;;;;;17.48;8.77;;;;;;;;;;4934345;29;20051;-53
2022/10/21 12:59:05;;;;;;;17.40;8.70;;;;;;;;;;4937570;29;20581;-52
2022/10/21 13:01:46;;;;;;;14.93;8.27;;;;;;;;;;4968300;28;20058;-50
2022/10/21 13:04:30;;;;;;;18.05;9.27;;;;;;;;;;5012452;28;20604;-50
2022/10/21 13:07:01;;;;;;;16.35;8.23;;;;;;;;;;5001072;28;20383;-50
2022/10/21 13:09:42;;;;;;;17.05;8.90;;;;;;;;;;5008669;28;20053;-50
2022/10/21 13:12:33;;;;;;;14.45;8.98;;;;;;;;;;5016506;28;20058;-50
2022/10/21 13:15:25;;;;;;;16.40;8.35;;;;;;;;;;4986498;28;20054;-51
2022/10/21 13:17:56;;;;;;;15.77;8.63;;;;;;;;;;5001687;28;20125;-49
2022/10/21 13:20:41;;;;;;;16.42;9.43;;;;;;;;;;5020860;28;20049;-50
2022/10/21 13:23:30;;;;;;;16.85;9.30;;;;;;;;;;5006417;28;20061;-49
2022/10/21 13:26:24;;;;;;;16.77;7.88;;;;;;;;;;5008784;28;20049;-50
2022/10/21 13:28:56;;;;;;;17.45;8.10;;;;;;;;;;5001844;28;20064;-49
2022/10/21 13:31:27;;;;;;;19.25;9.13;;;;;;;;;;5008174;28;20050;-49
2022/10/21 13:33:57;;;;;;;19.50;9.60;;;;;;;;;;5007119;28;20056;-49
2022/10/21 13:36:38;;;;;;;20.33;9.93;;;;;;;;;;5016135;28;20050;-50
2022/10/21 13:39:22;;;;;;;17.55;9.05;;;;;;;;;;5014600;28;20117;-49
2022/10/21 13:42:03;;;;;;;19.95;9.65;;;;;;;;;;5014537;28;20053;-46
2022/10/21 13:44:34;;;;;;;12.18;7.60;;;;;;;;;;5016332;28;20050;-49
2022/10/21 13:47:25;;;;;;;16.92;9.15;;;;;;;;;;5016404;28;20082;-49
2022/10/21 13:49:57;;;;;;;15.77;7.53;;;;;;;;;;5013576;28;20057;-48
2022/10/21 13:52:27;;;;;;;17.00;9.27;;;;;;;;;;5014046;28;20053;-49
2022/10/21 13:54:58;;;;;;;17.90;8.63;;;;;;;;;;5010007;28;20061;-49
2022/10/21 13:57:29;;;;;;;19.23;9.60;;;;;;;;;;5011163;28;20042;-48
2022/10/21 14:00:07;;;;;;;19.05;10.45;;;;;;;;;;5009008;28;20065;-49
2022/10/21 14:02:35;;;;;;;17.63;9.52;;;;;;;;;;5013782;28;20046;-49
2022/10/21 14:05:20;;;;;;;18.23;10.27;;;;;;;;;;5013942;28;20053;-49
2022/10/21 14:07:52;;;;;;;20.92;10.25;;;;;;;;;;5009154;28;20050;-49
2022/10/21 14:10:22;;;;;;;20.30;10.13;;;;;;;;;;5003362;28;20054;-49
2022/10/21 14:12:51;;;;;;;19.45;9.80;;;;;;;;;;5009626;28;20050;-49
2022/10/21 14:15:21;;;;;;;22.52;11.30;;;;;;;;;;5013797;28;20053;-48
2022/10/21 14:17:50;;;;;;;19.98;9.82;;;;;;;;;;5012681;28;20050;-49
2022/10/21 14:20:22;;;;;;;18.00;10.18;;;;;;;;;;5008049;28;20038;-52
2022/10/21 14:23:02;;;;;;;19.25;10.40;;;;;;;;;;5014297;28;20050;-51
2022/10/21 14:25:30;;;;;;;19.70;10.30;;;;;;;;;;5014003;28;20059;-49
2022/10/21 14:27:59;;;;;;;19.92;9.70;;;;;;;;;;5015956;28;20474;-51
2022/10/21 14:30:30;;;;;;;19.95;10.70;;;;;;;;;;5007824;28;20398;-50
2022/10/21 14:33:13;;;;;;;18.92;11.25;;;;;;;;;;5012490;28;20064;-49
2022/10/21 14:35:42;;;;;;;20.88;10.52;;;;;;;;;;5008434;28;20060;-47
2022/10/21 14:38:24;;;;;;;18.27;9.95;;;;;;;;;;5013221;28;20046;-46
2022/10/21 14:41:03;;;;;;;21.10;11.38;;;;;;;;;;5012030;28;20058;-48
2022/10/21 14:43:32;;;;;;;19.58;9.43;;;;;;;;;;5015143;28;20433;-49
2022/10/21 14:46:00;;;;;;;18.00;10.52;;;;;;;;;;5012419;28;20049;-51
2022/10/21 14:48:30;;;;;;;19.73;11.85;;;;;;;;;;5015132;28;20038;-47
2022/10/21 14:50:59;;;;;;;19.02;9.65;;;;;;;;;;5010433;28;20056;-46
2022/10/21 14:53:28;;;;;;;20.17;10.45;;;;;;;;;;5011874;28;20490;-46
2022/10/21 14:56:17;;;;;;;22.42;11.40;;;;;;;;;;5013715;28;20050;-47
2022/10/21 14:58:48;;;;;;;21.35;10.60;;;;;;;;;;5005450;28;20050;-48
2022/10/21 15:01:26;;;;;;;20.38;11.07;;;;;;;;;;5014530;28;20103;-47
2022/10/21 15:03:55;;;;;;;22.08;11.07;;;;;;;;;;5012847;28;20057;-48
2022/10/21 15:06:24;;;;;;;18.67;10.20;;;;;;;;;;5011324;28;20057;-48
2022/10/21 15:09:02;;;;;;;19.60;10.40;;;;;;;;;;5008830;28;20050;-47